Time;durP1;ratioP1;P1;durP2;ratioP2;P2;SDS_P1;SDS_P2;PMS_P1;PMS_P2;Temp;Humidity;BMP_temperature;BMP_pressure;BME280_temperature;BME280_humidity;BME280_pressure;Samples;Min_cycle;Max_cycle;Signal;HPM_P1;HPM_P2
2023/07/20 00:01:47;;;;;;;;;;;;;;;12.69;72.09;100608.88;108368;1262;67321;-88
2023/07/20 00:04:14;;;;;;;;;;;;;;;12.68;72.16;100606.91;108296;1262;125692;-87
2023/07/20 00:06:42;;;;;;;;;;;;;;;12.68;72.20;100603.92;108481;1262;59494;-87
2023/07/20 00:09:14;;;;;;;;;;;;;;;12.68;72.30;100601.11;108397;1262;126529;-87
2023/07/20 00:11:42;;;;;;;;;;;;;;;12.68;72.45;100601.81;108312;1262;77268;-87
2023/07/20 00:14:09;;;;;;;;;;;;;;;12.68;72.49;100599.35;108444;1267;67136;-88
2023/07/20 00:16:36;;;;;;;;;;;;;;;12.69;72.47;100598.30;108414;1261;125606;-87
2023/07/20 00:19:04;;;;;;;;;;;;;;;12.69;72.48;100600.42;108241;1278;60930;-88
2023/07/20 00:21:31;;;;;;;;;;;;;;;12.70;72.53;100602.73;108320;1262;124958;-88
2023/07/20 00:23:58;;;;;;;;;;;;;;;12.70;72.63;100598.67;108522;1262;75330;-88
2023/07/20 00:26:26;;;;;;;;;;;;;;;12.69;72.60;100599.54;108372;1261;125781;-88
2023/07/20 00:28:53;;;;;;;;;;;;;;;12.69;72.64;100598.67;108495;1264;72487;-88
2023/07/20 00:31:20;;;;;;;;;;;;;;;12.69;72.68;100602.36;108407;1263;59638;-88
2023/07/20 00:33:49;;;;;;;;;;;;;;;12.69;72.80;100600.92;108290;1267;126981;-88
2023/07/20 00:36:17;;;;;;;;;;;;;;;12.69;72.89;100602.34;108510;1262;74989;-88
2023/07/20 00:38:44;;;;;;;;;;;;;;;12.68;72.84;100601.11;108413;1262;126542;-87
2023/07/20 00:41:11;;;;;;;;;;;;;;;12.69;72.91;100603.23;108437;1262;72709;-88
2023/07/20 00:43:38;;;;;;;;;;;;;;;12.70;72.91;100605.19;108447;1262;59142;-88
2023/07/20 00:46:08;;;;;;;;;;;;;;;12.71;72.93;100607.31;108389;1261;125488;-88
2023/07/20 00:48:35;;;;;;;;;;;;;;;12.69;72.98;100604.48;108507;1266;77599;-88
2023/07/20 00:51:02;;;;;;;;;;;;;;;12.71;73.09;100603.78;108198;1264;125196;-88
2023/07/20 00:53:31;;;;;;;;;;;;;;;12.71;73.01;100607.84;108477;1262;71456;-89
2023/07/20 00:55:58;;;;;;;;;;;;;;;12.70;73.02;100608.71;108288;1262;59449;-88
2023/07/20 00:58:25;;;;;;;;;;;;;;;12.69;73.03;100615.39;108245;1262;125164;-88
2023/07/20 01:00:52;;;;;;;;;;;;;;;12.67;73.09;100613.78;108421;1262;73426;-88
2023/07/20 01:03:20;;;;;;;;;;;;;;;12.65;73.14;100614.98;108436;1262;125085;-88
2023/07/20 01:06:02;;;;;;;;;;;;;;;12.65;73.16;100617.97;108404;1262;72829;-88
2023/07/20 01:08:29;;;;;;;;;;;;;;;12.66;73.23;100617.63;108380;1264;124851;-88
2023/07/20 01:11:04;;;;;;;;;;;;;;;12.70;73.26;100617.50;108526;1262;59921;-88
2023/07/20 01:13:31;;;;;;;;;;;;;;;12.73;73.39;100620.89;108405;1262;73389;-88
2023/07/20 01:16:02;;;;;;;;;;;;;;;12.77;73.43;100619.02;108291;1262;124443;-88
2023/07/20 01:22:00;;;;;;;;;;;;;;;12.89;73.54;100607.20;108516;1266;124551;-88
2023/07/20 01:24:31;;;;;;;;;;;;;;;12.93;73.50;100610.08;108633;1262;59087;-88
2023/07/20 01:27:18;;;;;;;;;;;;;;;12.93;73.37;100606.71;108458;1262;124530;-88
2023/07/20 01:29:45;;;;;;;;;;;;;;;12.92;73.37;100607.58;108573;1261;65805;-88
2023/07/20 01:32:12;;;;;;;;;;;;;;;12.91;73.24;100612.67;108602;1262;72782;-88
2023/07/20 01:34:39;;;;;;;;;;;;;;;12.90;73.30;100612.31;108389;1266;123821;-88
2023/07/20 01:37:06;;;;;;;;;;;;;;;12.91;73.38;100616.55;108386;1262;59387;-88
2023/07/20 01:39:36;;;;;;;;;;;;;;;12.93;73.37;100610.77;108399;1262;125690;-88
2023/07/20 01:42:03;;;;;;;;;;;;;;;12.95;73.48;100609.39;108521;1262;67036;-88
2023/07/20 01:44:30;;;;;;;;;;;;;;;12.95;73.32;100606.59;108329;1262;126024;-88
2023/07/20 01:46:57;;;;;;;;;;;;;;;12.94;73.29;100609.73;108252;1261;59465;-87
2023/07/20 01:49:24;;;;;;;;;;;;;;;12.92;73.23;100607.60;108403;1262;60710;-88
2023/07/20 01:51:51;;;;;;;;;;;;;;;12.90;73.20;100603.33;108266;1268;125532;-87
2023/07/20 01:54:18;;;;;;;;;;;;;;;12.87;73.29;100599.60;108391;1266;66486;-87
2023/07/20 01:56:48;;;;;;;;;;;;;;;12.86;73.34;100601.34;108334;1264;125665;-87
2023/07/20 01:59:17;;;;;;;;;;;;;;;12.83;73.38;100596.91;108585;1261;59535;-87
2023/07/20 02:01:44;;;;;;;;;;;;;;;12.82;73.45;100600.95;108551;1262;59471;-87
2023/07/20 02:04:11;;;;;;;;;;;;;;;12.81;73.59;100598.63;108436;1262;125041;-87
2023/07/20 02:06:41;;;;;;;;;;;;;;;12.82;73.68;100602.01;108556;1262;65687;-87
2023/07/20 02:09:11;;;;;;;;;;;;;;;12.83;73.76;100598.67;108394;1268;125751;-87
2023/07/20 02:11:37;;;;;;;;;;;;;;;12.84;73.96;100601.50;108542;1262;59912;-87
2023/07/20 02:14:04;;;;;;;;;;;;;;;12.86;73.89;100602.75;108589;1264;59152;-87
2023/07/20 02:16:31;;;;;;;;;;;;;;;12.88;73.99;100598.55;108386;1262;126444;-88
2023/07/20 02:18:58;;;;;;;;;;;;;;;12.90;74.06;100599.99;108453;1262;67119;-87
2023/07/20 02:21:25;;;;;;;;;;;;;;;12.94;74.16;100598.98;108388;1262;126051;-88
2023/07/20 02:23:52;;;;;;;;;;;;;;;12.98;74.15;100594.46;108601;1262;61330;-88
2023/07/20 02:26:19;;;;;;;;;;;;;;;13.02;74.10;100595.58;108433;1262;125602;-87
2023/07/20 02:28:46;;;;;;;;;;;;;;;13.05;74.10;100592.95;108514;1262;73406;-88
2023/07/20 02:31:16;;;;;;;;;;;;;;;13.07;74.08;100588.93;108417;1262;64971;-88
2023/07/20 02:33:46;;;;;;;;;;;;;;;13.11;74.06;100594.44;108408;1262;125659;-88
2023/07/20 02:36:16;;;;;;;;;;;;;;;13.16;74.07;100591.69;108377;1262;59597;-87
2023/07/20 02:38:43;;;;;;;;;;;;;;;13.23;74.10;100591.77;108442;1260;125222;-88
2023/07/20 02:41:16;;;;;;;;;;;;;;;13.30;74.10;100590.46;108596;1261;74807;-88
2023/07/20 02:43:48;;;;;;;;;;;;;;;13.37;74.02;100596.17;108548;1266;67183;-88
2023/07/20 02:46:15;;;;;;;;;;;;;;;13.46;74.17;100591.70;108451;1262;126166;-88
2023/07/20 02:48:45;;;;;;;;;;;;;;;13.55;74.17;100596.73;108541;1262;59544;-88
2023/07/20 02:51:12;;;;;;;;;;;;;;;13.67;74.00;100595.44;108277;1267;125230;-88
2023/07/20 02:53:39;;;;;;;;;;;;;;;13.75;73.89;100588.11;108426;1264;74842;-88
2023/07/20 02:56:06;;;;;;;;;;;;;;;13.83;73.85;100587.31;108219;1262;67707;-88
2023/07/20 02:58:36;;;;;;;;;;;;;;;13.94;73.71;100587.23;108282;1262;125738;-88
2023/07/20 03:01:03;;;;;;;;;;;;;;;14.05;73.65;100585.37;108394;1262;59595;-88
2023/07/20 03:03:38;;;;;;;;;;;;;;;14.14;73.59;100585.45;108488;1262;125597;-87
2023/07/20 03:06:05;;;;;;;;;;;;;;;14.25;73.28;100582.52;108411;1262;74835;-88
2023/07/20 03:08:35;;;;;;;;;;;;;;;14.33;73.18;100583.83;108214;1267;124488;-87
2023/07/20 03:11:02;;;;;;;;;;;;;;;14.40;72.99;100587.58;108274;1262;72791;-87
2023/07/20 03:13:29;;;;;;;;;;;;;;;14.46;72.83;100586.55;108285;1262;59283;-88
2023/07/20 03:16:01;;;;;;;;;;;;;;;14.52;72.72;100588.20;108422;1262;124351;-88
2023/07/20 03:18:29;;;;;;;;;;;;;;;14.59;72.72;100584.71;108574;1262;73549;-88
2023/07/20 03:20:56;;;;;;;;;;;;;;;14.65;72.55;100584.94;108407;1261;125540;-88
2023/07/20 03:23:23;;;;;;;;;;;;;;;14.69;72.45;100588.14;108459;1262;72507;-88
2023/07/20 03:25:53;;;;;;;;;;;;;;;14.73;72.32;100587.81;108560;1277;59307;-88
2023/07/20 03:28:20;;;;;;;;;;;;;;;14.77;72.17;100588.20;108236;1267;125125;-88
2023/07/20 03:30:52;;;;;;;;;;;;;;;14.82;72.11;100587.15;108473;1262;75358;-88
2023/07/20 03:33:19;;;;;;;;;;;;;;;14.88;72.11;100585.94;108314;1260;124848;-88
2023/07/20 03:35:47;;;;;;;;;;;;;;;14.96;71.92;100583.67;108463;1264;72719;-88
2023/07/20 03:38:14;;;;;;;;;;;;;;;15.04;71.91;100587.95;108519;1262;59543;-88
2023/07/20 03:40:49;;;;;;;;;;;;;;;15.10;71.83;100589.91;108400;1262;124566;-88
2023/07/20 03:43:15;;;;;;;;;;;;;;;15.18;71.83;100592.08;108426;1267;75514;-88
2023/07/20 03:45:43;;;;;;;;;;;;;;;15.26;71.61;100599.70;108484;1263;125520;-88
2023/07/20 03:48:17;;;;;;;;;;;;;;;15.34;71.43;100600.80;108384;1262;73848;-89
2023/07/20 03:50:45;;;;;;;;;;;;;;;15.57;71.78;100602.08;108252;1262;125747;-88
2023/07/20 03:53:12;;;;;;;;;;;;;;;15.88;71.24;100607.48;108313;1262;59591;-88
2023/07/20 03:55:40;;;;;;;;;;;;;;;15.94;70.72;100602.70;108554;1262;74697;-88
2023/07/20 03:58:07;;;;;;;;;;;;;;;15.98;70.54;100606.05;108464;1262;126052;-88
2023/07/20 04:00:34;;;;;;;;;;;;;;;15.99;70.26;100602.88;108454;1262;72464;-88
2023/07/20 04:03:04;;;;;;;;;;;;;;;16.03;70.30;100596.70;108397;1261;125760;-89
2023/07/20 04:05:34;;;;;;;;;;;;;;;16.10;70.20;100594.04;108551;1260;60668;-91
2023/07/20 04:08:05;;;;;;;;;;;;;;;16.19;70.07;100593.67;108547;1262;74509;-90
2023/07/20 04:10:32;;;;;;;;;;;;;;;16.28;69.87;100597.04;108471;1262;125839;-90
2023/07/20 04:13:00;;;;;;;;;;;;;;;16.37;69.65;100594.89;108564;1262;72863;-86
2023/07/20 04:15:27;;;;;;;;;;;;;;;16.49;69.71;100594.89;108434;1266;124943;-90
2023/07/20 04:17:55;;;;;;;;;;;;;;;16.62;69.51;100591.84;108401;1262;61643;-89
2023/07/20 04:20:23;;;;;;;;;;;;;;;16.72;69.31;100595.36;108307;1262;125353;-89
2023/07/20 04:23:10;;;;;;;;;;;;;;;16.82;69.16;100592.68;108358;1262;69053;-90
2023/07/20 04:25:39;;;;;;;;;;;;;;;16.93;68.86;100590.18;108345;1262;72450;-89
2023/07/20 04:28:08;;;;;;;;;;;;;;;17.01;68.76;100591.05;108366;1262;125004;-89
2023/07/20 04:30:55;;;;;;;;;;;;;;;17.07;68.53;100590.48;108476;1262;61779;-88
2023/07/20 04:33:22;;;;;;;;;;;;;;;17.13;68.38;100594.37;108558;1259;81303;-84
2023/07/20 04:35:50;;;;;;;;;;;;;;;17.15;68.16;100597.19;108722;1261;67068;-83
2023/07/20 04:38:17;;;;;;;;;;;;;;;17.15;68.08;100596.30;108743;1261;73225;-84
2023/07/20 04:40:45;;;;;;;;;;;;;;;17.14;68.06;100601.80;108600;1260;124772;-82
2023/07/20 04:43:12;;;;;;;;;;;;;;;17.13;67.90;100599.50;108674;1260;60104;-84
2023/07/20 04:45:39;;;;;;;;;;;;;;;17.12;67.80;100605.36;108555;1260;125266;-84
2023/07/20 04:48:15;;;;;;;;;;;;;;;17.11;67.89;100609.61;108752;1261;67055;-85
2023/07/20 04:50:43;;;;;;;;;;;;;;;17.13;67.80;100615.98;108642;1261;125104;-84
2023/07/20 04:53:10;;;;;;;;;;;;;;;17.15;67.86;100615.63;108715;1261;59229;-84
2023/07/20 04:55:38;;;;;;;;;;;;;;;17.18;67.88;100615.09;108724;1261;59059;-83
2023/07/20 04:58:05;;;;;;;;;;;;;;;17.18;67.75;100614.56;108507;1262;125033;-84
2023/07/20 05:00:32;;;;;;;;;;;;;;;17.16;67.70;100612.79;108528;1260;66519;-84
2023/07/20 05:03:00;;;;;;;;;;;;;;;17.13;67.63;100610.85;108599;1261;125290;-84
2023/07/20 05:05:27;;;;;;;;;;;;;;;17.13;67.68;100614.40;108550;1262;59797;-83
2023/07/20 05:07:54;;;;;;;;;;;;;;;17.12;67.80;100614.41;108568;1260;60159;-85
2023/07/20 05:10:21;;;;;;;;;;;;;;;17.14;67.87;100615.64;108494;1261;124611;-84
2023/07/20 05:12:48;;;;;;;;;;;;;;;17.18;67.76;100612.60;108637;1261;67038;-84
2023/07/20 05:15:15;;;;;;;;;;;;;;;17.20;67.59;100614.90;108514;1264;125100;-83
2023/07/20 05:17:42;;;;;;;;;;;;;;;17.24;67.57;100609.02;108651;1261;59311;-84
2023/07/20 05:20:12;;;;;;;;;;;;;;;17.36;67.61;100608.45;108624;1261;59931;-85
2023/07/20 05:22:40;;;;;;;;;;;;;;;17.52;67.57;100605.70;108544;1262;125110;-84
2023/07/20 05:25:08;;;;;;;;;;;;;;;17.70;67.41;100604.52;108635;1261;67569;-84
2023/07/20 05:27:36;;;;;;;;;;;;;;;17.83;67.08;100603.73;108535;1262;125505;-84
2023/07/20 05:30:03;;;;;;;;;;;;;;;17.86;66.70;100602.30;108530;1262;59461;-84
2023/07/20 05:32:30;;;;;;;;;;;;;;;17.93;66.67;100603.86;108445;1260;126439;-84
2023/07/20 05:34:57;;;;;;;;;;;;;;;18.03;66.50;100598.81;108666;1262;74740;-84
2023/07/20 05:37:24;;;;;;;;;;;;;;;18.12;66.34;100600.67;108691;1260;67245;-84
2023/07/20 05:39:51;;;;;;;;;;;;;;;18.23;66.18;100606.80;108597;1261;125148;-84
2023/07/20 05:42:18;;;;;;;;;;;;;;;18.35;66.04;100608.13;108627;1262;59016;-84
2023/07/20 05:44:47;;;;;;;;;;;;;;;18.45;65.79;100612.99;108433;1265;124517;-84
2023/07/20 05:47:14;;;;;;;;;;;;;;;18.54;65.71;100611.48;108565;1262;75166;-84
2023/07/20 05:49:41;;;;;;;;;;;;;;;18.68;65.56;100614.53;108525;1267;67128;-84
2023/07/20 05:52:08;;;;;;;;;;;;;;;18.82;65.39;100616.55;108431;1262;125617;-84
2023/07/20 05:54:35;;;;;;;;;;;;;;;18.88;65.11;100621.29;108556;1262;59431;-84
2023/07/20 05:57:02;;;;;;;;;;;;;;;18.89;64.89;100623.06;108491;1262;124809;-84
2023/07/20 05:59:31;;;;;;;;;;;;;;;18.81;64.59;100618.88;108660;1261;75053;-84
2023/07/20 06:01:58;;;;;;;;;;;;;;;18.75;64.62;100618.91;108498;1260;67046;-84
2023/07/20 06:04:25;;;;;;;;;;;;;;;18.74;64.54;100616.96;108516;1261;124711;-84
2023/07/20 06:06:52;;;;;;;;;;;;;;;18.78;64.41;100614.98;108561;1261;59186;-85
2023/07/20 06:09:19;;;;;;;;;;;;;;;18.91;64.63;100611.65;108493;1262;124474;-85
2023/07/20 06:11:46;;;;;;;;;;;;;;;19.11;64.47;100611.23;108599;1262;73031;-84
2023/07/20 06:14:13;;;;;;;;;;;;;;;19.31;64.36;100607.59;108740;1262;67132;-85
2023/07/20 06:16:40;;;;;;;;;;;;;;;19.57;64.10;100609.56;108577;1262;124791;-84
2023/07/20 06:19:07;;;;;;;;;;;;;;;19.74;63.47;100609.51;108637;1261;59393;-84
2023/07/20 06:21:34;;;;;;;;;;;;;;;19.87;63.25;100607.55;108648;1260;124843;-85
2023/07/20 06:24:01;;;;;;;;;;;;;;;19.96;62.95;100599.92;108763;1263;73395;-84
2023/07/20 06:26:29;;;;;;;;;;;;;;;20.05;62.75;100599.42;108518;1261;125710;-84
2023/07/20 06:28:56;;;;;;;;;;;;;;;20.13;62.50;100601.77;108749;1261;72377;-84
2023/07/20 06:31:23;;;;;;;;;;;;;;;20.18;62.34;100602.94;108517;1262;59189;-85
2023/07/20 06:33:50;;;;;;;;;;;;;;;20.18;62.06;100602.95;108697;1261;125126;-86
2023/07/20 06:36:17;;;;;;;;;;;;;;;20.15;61.97;100609.05;108764;1261;73746;-85
2023/07/20 06:38:45;;;;;;;;;;;;;;;20.12;61.85;100607.14;108479;1262;125218;-85
2023/07/20 06:41:11;;;;;;;;;;;;;;;20.05;61.73;100613.31;108736;1260;72428;-85
2023/07/20 06:43:38;;;;;;;;;;;;;;;19.95;61.54;100614.91;108629;1260;59935;-85
2023/07/20 06:46:05;;;;;;;;;;;;;;;19.81;61.58;100610.30;108651;1262;124346;-85
2023/07/20 06:48:33;;;;;;;;;;;;;;;19.75;61.66;100614.67;108664;1261;73642;-85
2023/07/20 06:51:00;;;;;;;;;;;;;;;19.70;61.53;100611.88;108414;1262;124965;-85
2023/07/20 06:53:27;;;;;;;;;;;;;;;19.64;61.69;100612.84;108597;1261;73178;-85
2023/07/20 06:55:54;;;;;;;;;;;;;;;19.67;61.82;100612.98;108568;1261;59183;-85
2023/07/20 06:58:22;;;;;;;;;;;;;;;19.71;61.73;100615.06;108509;1260;124700;-85
2023/07/20 07:00:49;;;;;;;;;;;;;;;19.78;61.96;100614.80;108742;1262;74621;-85
2023/07/20 07:03:16;;;;;;;;;;;;;;;19.90;61.76;100614.08;108373;1263;124538;-85
2023/07/20 07:05:43;;;;;;;;;;;;;;;20.06;61.83;100609.54;108607;1262;72739;-85
2023/07/20 07:08:10;;;;;;;;;;;;;;;20.31;61.74;100608.77;108700;1265;59162;-85
2023/07/20 07:10:37;;;;;;;;;;;;;;;20.64;61.67;100603.91;108642;1261;124705;-84
2023/07/20 07:13:04;;;;;;;;;;;;;;;21.09;61.18;100604.30;108715;1262;74748;-85
2023/07/20 07:15:31;;;;;;;;;;;;;;;21.43;60.47;100605.89;108385;1261;125117;-85
2023/07/20 07:17:59;;;;;;;;;;;;;;;21.72;59.83;100606.89;108705;1261;71909;-85
2023/07/20 07:20:26;;;;;;;;;;;;;;;21.89;59.32;100610.05;108590;1260;124906;-85
2023/07/20 07:22:53;;;;;;;;;;;;;;;21.94;58.87;100602.60;108678;1261;60072;-85
2023/07/20 07:25:20;;;;;;;;;;;;;;;21.96;58.45;100594.88;108773;1261;73471;-85
2023/07/20 07:27:47;;;;;;;;;;;;;;;21.98;58.31;100589.83;108514;1261;125197;-85
2023/07/20 07:30:14;;;;;;;;;;;;;;;21.98;58.15;100588.02;108535;1261;73187;-85
2023/07/20 07:32:41;;;;;;;;;;;;;;;22.02;58.02;100587.95;108462;1262;124666;-85
2023/07/20 07:35:08;;;;;;;;;;;;;;;22.09;57.73;100587.73;108718;1261;59057;-85
2023/07/20 07:37:35;;;;;;;;;;;;;;;22.15;57.38;100585.99;108614;1260;75716;-85
2023/07/20 07:40:03;;;;;;;;;;;;;;;22.20;57.14;100582.65;108572;1261;124851;-85
2023/07/20 07:42:30;;;;;;;;;;;;;;;22.30;57.04;100582.23;108384;1263;70960;-85
2023/07/20 07:44:57;;;;;;;;;;;;;;;22.36;56.68;100583.88;108655;1260;124620;-84
2023/07/20 07:47:23;;;;;;;;;;;;;;;22.35;56.48;100588.75;108749;1261;59309;-85
2023/07/20 07:49:51;;;;;;;;;;;;;;;22.36;56.31;100589.77;108698;1260;72336;-85
2023/07/20 07:52:17;;;;;;;;;;;;;;;22.39;56.17;100585.06;108458;1266;125031;-85
2023/07/20 07:54:44;;;;;;;;;;;;;;;22.42;56.21;100586.23;108602;1262;72107;-85
2023/07/20 07:57:13;;;;;;;;;;;;;;;22.45;56.01;100588.63;108588;1260;124782;-85
2023/07/20 07:59:40;;;;;;;;;;;;;;;22.41;55.65;100590.18;108737;1265;59722;-85
2023/07/20 08:02:07;;;;;;;;;;;;;;;22.27;55.38;100589.45;108520;1260;74631;-85
2023/07/20 08:04:34;;;;;;;;;;;;;;;22.21;55.53;100585.51;108537;1260;124895;-85
2023/07/20 08:07:04;;;;;;;;;;;;;;;22.16;55.49;100585.06;108526;1261;72790;-85
2023/07/20 08:09:31;;;;;;;;;;;;;;;22.15;55.16;100585.64;108322;1266;124287;-85
2023/07/20 08:11:58;;;;;;;;;;;;;;;22.17;55.22;100585.59;108673;1261;59881;-85
2023/07/20 08:14:25;;;;;;;;;;;;;;;22.17;54.97;100581.84;108509;1262;72720;-85
2023/07/20 08:16:52;;;;;;;;;;;;;;;22.16;54.79;100583.45;108497;1261;124294;-85
2023/07/20 08:19:20;;;;;;;;;;;;;;;22.11;54.49;100576.98;108652;1260;70982;-85
2023/07/20 08:21:46;;;;;;;;;;;;;;;22.04;54.66;100576.45;108519;1262;124486;-85
2023/07/20 08:24:13;;;;;;;;;;;;;;;22.01;54.76;100576.89;108662;1262;60591;-85
2023/07/20 08:26:40;;;;;;;;;;;;;;;22.11;54.86;100577.52;108488;1260;124504;-84
2023/07/20 08:29:07;;;;;;;;;;;;;;;22.26;54.47;100575.38;108596;1264;67037;-85
2023/07/20 08:31:34;;;;;;;;;;;;;;;22.40;54.05;100580.02;108656;1260;72523;-85
2023/07/20 08:34:01;;;;;;;;;;;;;;;22.53;53.49;100581.81;108554;1260;124814;-85
2023/07/20 08:36:32;;;;;;;;;;;;;;;22.78;53.49;100584.17;108784;1261;59035;-85
2023/07/20 08:38:59;;;;;;;;;;;;;;;23.12;52.89;100582.33;108496;1260;124364;-85
2023/07/20 08:41:26;;;;;;;;;;;;;;;23.35;52.02;100585.39;108706;1260;66980;-85
2023/07/20 08:43:53;;;;;;;;;;;;;;;23.42;51.18;100581.05;108721;1262;71781;-85
2023/07/20 08:46:20;;;;;;;;;;;;;;;23.53;51.29;100584.66;108453;1266;124630;-87
2023/07/20 08:48:47;;;;;;;;;;;;;;;23.77;51.14;100579.06;108490;1265;59472;-87
2023/07/20 08:51:14;;;;;;;;;;;;;;;23.98;50.69;100576.25;108389;1262;124567;-87
2023/07/20 08:53:41;;;;;;;;;;;;;;;24.07;50.39;100575.43;108473;1260;65392;-87
2023/07/20 08:56:09;;;;;;;;;;;;;;;24.13;50.10;100572.89;108573;1261;71411;-87
2023/07/20 08:58:36;;;;;;;;;;;;;;;24.20;49.65;100572.46;108652;1265;124482;-87
2023/07/20 09:01:03;;;;;;;;;;;;;;;24.25;49.25;100574.09;108740;1261;59082;-87
2023/07/20 09:03:29;;;;;;;;;;;;;;;24.35;49.02;100575.20;108473;1261;124705;-87
2023/07/20 09:05:57;;;;;;;;;;;;;;;24.52;48.82;100578.54;108760;1261;65592;-87
2023/07/20 09:08:24;;;;;;;;;;;;;;;24.72;48.33;100573.18;108654;1262;72695;-87
2023/07/20 09:10:51;;;;;;;;;;;;;;;24.87;48.00;100572.25;108631;1260;124599;-87
2023/07/20 09:13:18;;;;;;;;;;;;;;;24.93;47.87;100568.80;108713;1263;59617;-87
2023/07/20 09:15:46;;;;;;;;;;;;;;;24.93;47.35;100564.15;108522;1266;124547;-87
2023/07/20 09:18:13;;;;;;;;;;;;;;;24.82;47.13;100563.66;108784;1263;66219;-87
2023/07/20 09:20:40;;;;;;;;;;;;;;;24.60;46.76;100565.19;108503;1262;124495;-86
2023/07/20 09:23:07;;;;;;;;;;;;;;;24.37;46.75;100568.30;108674;1260;58984;-87
2023/07/20 09:25:34;;;;;;;;;;;;;;;24.24;46.79;100572.52;108664;1262;59113;-87
2023/07/20 09:28:02;;;;;;;;;;;;;;;24.23;46.72;100573.61;108587;1262;125209;-87
2023/07/20 09:30:29;;;;;;;;;;;;;;;24.32;46.79;100566.66;108729;1260;67352;-87
2023/07/20 09:32:56;;;;;;;;;;;;;;;24.42;46.85;100565.79;108477;1262;124470;-87
2023/07/20 09:35:23;;;;;;;;;;;;;;;24.57;46.63;100555.94;108545;1262;59027;-87
2023/07/20 09:37:54;;;;;;;;;;;;;;;24.72;46.55;100557.02;108631;1262;59160;-87
2023/07/20 09:40:21;;;;;;;;;;;;;;;24.86;46.19;100556.50;108425;1262;124545;-87
2023/07/20 09:42:48;;;;;;;;;;;;;;;24.97;46.22;100555.94;108611;1262;67513;-87
2023/07/20 09:45:15;;;;;;;;;;;;;;;25.09;45.94;100552.42;108583;1262;124931;-87
2023/07/20 09:47:42;;;;;;;;;;;;;;;25.24;45.48;100548.80;108521;1262;59030;-87
2023/07/20 09:50:10;;;;;;;;;;;;;;;25.42;45.33;100550.45;108674;1261;59399;-87
2023/07/20 09:52:39;;;;;;;;;;;;;;;25.55;45.28;100546.85;108433;1262;124174;-87
2023/07/20 09:55:09;;;;;;;;;;;;;;;25.73;44.99;100546.13;108594;1262;67069;-87
2023/07/20 09:57:36;;;;;;;;;;;;;;;25.95;44.61;100548.81;108585;1262;124376;-88
2023/07/20 10:00:07;;;;;;;;;;;;;;;26.18;44.66;100549.66;108609;1261;59191;-85
2023/07/20 10:02:35;;;;;;;;;;;;;;;26.28;44.29;100549.59;108573;1260;124433;-88
2023/07/20 10:05:03;;;;;;;;;;;;;;;26.14;43.97;100552.38;108614;1262;74472;-85
2023/07/20 10:07:30;;;;;;;;;;;;;;;25.84;43.82;100562.77;108537;1262;67033;-84
2023/07/20 10:09:59;;;;;;;;;;;;;;;25.32;44.04;100588.88;108513;1262;125849;-87
2023/07/20 10:12:27;;;;;;;;;;;;;;;24.10;45.90;100594.64;108673;1262;59060;-87
2023/07/20 10:15:13;;;;;;;;;;;;;;;22.40;46.21;100586.05;108573;1262;124498;-87
2023/07/20 10:17:49;;;;;;;;;;;;;;;21.12;47.15;100579.62;108652;1262;72841;-85
2023/07/20 10:20:16;;;;;;;;;;;;;;;20.63;48.32;100583.45;108621;1262;67277;-84
2023/07/20 10:22:43;;;;;;;;;;;;;;;20.46;48.76;100585.17;108477;1262;124583;-84
2023/07/20 10:25:10;;;;;;;;;;;;;;;20.43;48.56;100587.54;108563;1262;59231;-84
2023/07/20 10:27:39;;;;;;;;;;;;;;;20.33;48.62;100590.40;108583;1261;124221;-84
2023/07/20 10:30:06;;;;;;;;;;;;;;;20.32;49.32;100585.05;108602;1262;73221;-84
2023/07/20 10:32:33;;;;;;;;;;;;;;;20.50;49.53;100585.27;108493;1262;124918;-86
2023/07/20 10:35:00;;;;;;;;;;;;;;;20.76;49.66;100580.88;108635;1260;72348;-87
2023/07/20 10:37:46;;;;;;;;;;;;;;;21.00;49.57;100594.30;108635;1261;59329;-87
2023/07/20 10:40:26;;;;;;;;;;;;;;;21.07;49.03;100594.16;108489;1265;124455;-86
2023/07/20 10:42:57;;;;;;;;;;;;;;;21.02;49.50;100591.06;108632;1265;74689;-87
2023/07/20 10:45:47;;;;;;;;;;;;;;;21.10;50.54;100587.69;108492;1263;124749;-84
2023/07/20 10:48:19;;;;;;;;;;;;;;;21.12;50.79;100583.73;108566;1260;72505;-86
2023/07/20 10:50:46;;;;;;;;;;;;;;;21.04;51.07;100588.70;108369;1261;298674;-87
2023/07/20 10:53:14;;;;;;;;;;;;;;;20.92;51.50;100590.38;108577;1261;59942;-86
2023/07/20 10:55:41;;;;;;;;;;;;;;;20.77;52.29;100599.23;108609;1265;73883;-87
2023/07/20 10:58:09;;;;;;;;;;;;;;;20.55;52.95;100603.73;108401;1263;124506;-86
2023/07/20 11:00:37;;;;;;;;;;;;;;;20.19;52.89;100601.31;108559;1264;73486;-87
2023/07/20 11:03:04;;;;;;;;;;;;;;;19.80;53.03;100606.75;108650;1260;124565;-86
2023/07/20 11:05:34;;;;;;;;;;;;;;;19.42;53.18;100602.30;108637;1261;60111;-85
2023/07/20 11:08:25;;;;;;;;;;;;;;;19.21;53.65;100601.69;108758;1261;73450;-84
2023/07/20 11:11:11;;;;;;;;;;;;;;;19.23;54.40;100595.79;108646;1261;124332;-87
2023/07/20 11:13:38;;;;;;;;;;;;;;;19.41;54.74;100609.79;108753;1261;72826;-84
2023/07/20 11:16:05;;;;;;;;;;;;;;;19.50;54.82;100608.41;108452;1260;124378;-86
2023/07/20 11:18:39;;;;;;;;;;;;;;;19.53;54.89;100609.61;108783;1261;59321;-86
2023/07/20 11:21:07;;;;;;;;;;;;;;;19.52;55.07;100613.36;108618;1260;125146;-86
2023/07/20 11:23:35;;;;;;;;;;;;;;;19.59;55.16;100613.45;108533;1261;67271;-86
2023/07/20 11:26:03;;;;;;;;;;;;;;;19.70;55.45;100617.04;108645;1260;72806;-86
2023/07/20 11:28:31;;;;;;;;;;;;;;;19.87;55.72;100622.52;108534;1260;124504;-86
2023/07/20 11:30:58;;;;;;;;;;;;;;;20.09;55.98;100621.80;108705;1261;59879;-86
2023/07/20 11:33:38;;;;;;;;;;;;;;;20.38;56.17;100622.38;108578;1260;124503;-85
2023/07/20 11:36:05;;;;;;;;;;;;;;;20.65;56.33;100625.12;108560;1260;65464;-84
2023/07/20 11:38:33;;;;;;;;;;;;;;;20.88;56.23;100629.33;108657;1260;124792;-84
2023/07/20 11:41:00;;;;;;;;;;;;;;;21.04;55.94;100626.70;108795;1260;59008;-85
2023/07/20 11:43:27;;;;;;;;;;;;;;;21.17;55.69;100630.17;108659;1260;59278;-86
2023/07/20 11:45:54;;;;;;;;;;;;;;;21.33;55.64;100630.20;108436;1265;124513;-85
2023/07/20 11:48:21;;;;;;;;;;;;;;;21.45;55.34;100626.23;108563;1266;67078;-87
2023/07/20 11:50:48;;;;;;;;;;;;;;;21.52;55.36;100629.99;108604;1261;124438;-84
2023/07/20 11:53:15;;;;;;;;;;;;;;;21.57;55.16;100630.07;108701;1264;59167;-85
2023/07/20 11:55:42;;;;;;;;;;;;;;;21.58;54.93;100628.46;108705;1262;59012;-84
2023/07/20 11:58:10;;;;;;;;;;;;;;;21.49;54.78;100626.85;108510;1266;124314;-84
2023/07/20 12:00:38;;;;;;;;;;;;;;;21.38;54.93;100624.39;108739;1260;66851;-84
2023/07/20 12:03:09;;;;;;;;;;;;;;;21.31;55.18;100632.58;108547;1261;124563;-85
2023/07/20 12:05:38;;;;;;;;;;;;;;;21.26;55.29;100633.03;108648;1264;59415;-85
2023/07/20 12:08:05;;;;;;;;;;;;;;;21.23;55.66;100630.43;108561;1260;59198;-85
2023/07/20 12:10:32;;;;;;;;;;;;;;;21.33;55.88;100625.75;108618;1260;125020;-85
2023/07/20 12:13:03;;;;;;;;;;;;;;;21.45;55.84;100622.66;108691;1263;66925;-84
2023/07/20 12:15:31;;;;;;;;;;;;;;;21.47;55.91;100616.55;108633;1261;124930;-85
2023/07/20 12:17:59;;;;;;;;;;;;;;;21.50;56.05;100614.52;108639;1263;59389;-85
2023/07/20 12:20:30;;;;;;;;;;;;;;;21.62;56.18;100608.36;108615;1263;59178;-83
2023/07/20 12:23:01;;;;;;;;;;;;;;;21.85;56.45;100604.97;108614;1260;73135;-84
2023/07/20 12:25:40;;;;;;;;;;;;;;;22.18;56.04;100602.55;108632;1261;65628;-85
2023/07/20 12:28:11;;;;;;;;;;;;;;;22.48;55.64;100604.85;108608;1261;124648;-85
2023/07/20 12:30:38;;;;;;;;;;;;;;;22.75;54.97;100601.27;108737;1260;59207;-85
2023/07/20 12:33:05;;;;;;;;;;;;;;;22.98;53.97;100606.52;108478;1261;124478;-86